createdAt,value
2022-08-17T00:00:55.991Z,76.82
2022-08-17T00:01:56.048Z,76.11
2022-08-17T00:02:55.962Z,76.31
2022-08-17T00:03:55.952Z,76.62
2022-08-17T00:04:55.939Z,76.72
2022-08-17T00:05:55.932Z,76.62
2022-08-17T00:06:55.912Z,76.72
2022-08-17T00:07:55.932Z,77.12
2022-08-17T00:08:55.902Z,76.51
2022-08-17T00:09:55.921Z,76.92
2022-08-17T00:10:55.862Z,76.72
2022-08-17T00:12:41.079Z,76.92
2022-08-17T00:12:56.985Z,77.02
2022-08-17T00:13:56.053Z,76.92
2022-08-17T00:14:56.261Z,76.72
2022-08-17T00:15:55.829Z,76.82
2022-08-17T00:16:57.354Z,76.82
2022-08-17T00:17:55.829Z,76.92
2022-08-17T00:19:07.310Z,76.82
2022-08-17T00:19:56.782Z,75.60
2022-08-17T00:20:55.792Z,76.48
2022-08-17T00:22:31.814Z,76.48
2022-08-17T00:22:56.732Z,76.28
2022-08-17T00:23:55.751Z,76.38
2022-08-17T00:24:55.705Z,76.28
2022-08-17T00:25:55.723Z,76.38
2022-08-17T00:26:55.683Z,76.58
2022-08-17T00:27:55.700Z,76.78
2022-08-17T00:28:55.942Z,76.78
2022-08-17T00:29:55.669Z,76.68
2022-08-17T00:30:55.643Z,76.68
2022-08-17T00:31:56.398Z,76.48
2022-08-17T00:33:22.937Z,76.68
2022-08-17T00:33:56.636Z,76.88
2022-08-17T00:34:55.601Z,76.98
2022-08-17T00:35:55.600Z,76.98
2022-08-17T00:36:55.583Z,77.19
2022-08-17T00:37:55.585Z,77.08
2022-08-17T00:38:55.553Z,76.58
2022-08-17T00:39:55.605Z,76.88
2022-08-17T00:40:55.843Z,76.78
2022-08-17T00:41:55.532Z,76.48
2022-08-17T00:42:55.532Z,76.88
2022-08-17T00:43:55.502Z,76.28
2022-08-17T00:44:55.493Z,75.87
2022-08-17T00:45:55.494Z,75.67
2022-08-17T00:46:55.465Z,75.47
2022-08-17T00:47:55.504Z,76.38
2022-08-17T00:48:55.674Z,76.48
2022-08-17T00:49:55.482Z,75.67
2022-08-17T00:50:55.423Z,76.18
2022-08-17T00:51:55.415Z,76.28
2022-08-17T00:52:55.403Z,75.98
2022-08-17T00:53:55.411Z,76.38
2022-08-17T00:54:55.373Z,76.38
2022-08-17T00:55:55.392Z,76.18
2022-08-17T00:56:55.364Z,76.38
2022-08-17T00:57:55.781Z,76.38
2022-08-17T00:58:55.334Z,76.28
2022-08-17T01:00:03.269Z,76.62
2022-08-17T01:00:56.359Z,76.78
2022-08-17T01:01:55.333Z,76.58
2022-08-17T01:02:55.496Z,76.58
2022-08-17T01:03:55.531Z,76.88
2022-08-17T01:04:55.263Z,76.42
2022-08-17T01:05:55.274Z,76.82
2022-08-17T01:06:55.264Z,77.12
2022-08-17T01:07:55.270Z,77.32
2022-08-17T01:08:57.308Z,77.12
2022-08-17T01:09:55.303Z,77.22
2022-08-17T01:10:58.954Z,77.12
2022-08-17T01:11:56.207Z,77.32
2022-08-17T01:12:55.185Z,77.32
2022-08-17T01:13:55.175Z,77.32
2022-08-17T01:14:55.165Z,77.42
2022-08-17T01:15:55.165Z,77.62
2022-08-17T01:16:55.137Z,77.56
2022-08-17T01:17:55.144Z,77.66
2022-08-17T01:18:55.125Z,77.97
2022-08-17T01:19:55.119Z,77.97
2022-08-17T01:20:55.104Z,77.90
2022-08-17T01:21:55.127Z,77.60
2022-08-17T01:22:55.104Z,77.90
2022-08-17T01:23:55.075Z,77.60
2022-08-17T01:24:55.054Z,76.89
2022-08-17T01:25:55.056Z,77.19
2022-08-17T01:26:56.599Z,77.90
2022-08-17T01:27:55.116Z,78.10
2022-08-17T01:28:55.907Z,78.41
2022-08-17T01:29:55.954Z,78.61
2022-08-17T01:30:58.778Z,78.81
2022-08-17T01:31:54.995Z,79.11
2022-08-17T01:32:54.965Z,79.01
2022-08-17T01:33:54.978Z,79.11
2022-08-17T01:34:54.944Z,79.46
2022-08-17T01:35:54.936Z,79.46
2022-08-17T01:36:54.916Z,79.55
2022-08-17T01:37:54.925Z,79.55
2022-08-17T01:38:54.896Z,79.46
2022-08-17T01:39:54.956Z,79.66
2022-08-17T01:40:57.497Z,79.66
2022-08-17T01:41:54.875Z,79.66
2022-08-17T01:42:55.426Z,80.06
2022-08-17T01:43:54.865Z,80.06
2022-08-17T01:44:54.836Z,79.86
2022-08-17T01:46:03.111Z,79.69
2022-08-17T01:46:55.805Z,80.20
2022-08-17T01:47:54.817Z,80.30
2022-08-17T01:48:55.656Z,80.30
2022-08-17T01:49:54.802Z,80.10
2022-08-17T01:50:54.787Z,80.20
2022-08-17T01:51:54.777Z,80.40
2022-08-17T01:52:54.746Z,80.40
2022-08-17T01:53:55.688Z,80.40
2022-08-17T01:54:54.726Z,80.80
2022-08-17T01:55:54.745Z,81.15
2022-08-17T01:56:54.712Z,81.05
2022-08-17T01:57:54.707Z,80.64
2022-08-17T01:58:54.709Z,80.04
2022-08-17T01:59:54.696Z,80.04
2022-08-17T02:01:00.054Z,80.94
2022-08-17T02:01:55.769Z,81.05
2022-08-17T02:02:54.650Z,81.15
2022-08-17T02:04:00.741Z,81.35
2022-08-17T02:04:55.617Z,81.35
2022-08-17T02:05:54.655Z,81.15
2022-08-17T02:06:54.751Z,81.25
2022-08-17T02:08:00.312Z,81.45
2022-08-17T02:09:02.894Z,81.45
2022-08-17T02:09:55.576Z,81.55
2022-08-17T02:10:54.546Z,81.69
2022-08-17T02:11:54.562Z,81.79
2022-08-17T02:12:54.708Z,81.79
2022-08-17T02:13:57.966Z,81.79
2022-08-17T02:14:55.504Z,81.79
2022-08-17T02:15:54.507Z,81.59
2022-08-17T02:16:54.476Z,81.69
2022-08-17T02:17:54.910Z,81.69
2022-08-17T02:18:54.457Z,81.90
2022-08-17T02:19:54.448Z,81.99
2022-08-17T02:20:54.458Z,81.69
2022-08-17T02:21:54.418Z,81.69
2022-08-17T02:22:54.428Z,81.79
2022-08-17T02:23:54.408Z,81.99
2022-08-17T02:25:00.252Z,82.20
2022-08-17T02:25:55.377Z,82.30
2022-08-17T02:26:54.399Z,82.40
2022-08-17T02:27:54.346Z,82.40
2022-08-17T02:28:54.437Z,82.60
2022-08-17T02:29:54.341Z,82.50
2022-08-17T02:31:01.517Z,82.10
2022-08-17T02:31:56.149Z,82.20
2022-08-17T02:32:54.326Z,82.30
2022-08-17T02:34:00.269Z,82.50
2022-08-17T02:34:55.683Z,82.50
2022-08-17T02:35:54.268Z,82.60
2022-08-17T02:36:54.268Z,82.20
2022-08-17T02:37:55.439Z,82.40
2022-08-17T02:38:54.238Z,82.30
2022-08-17T02:39:55.062Z,82.20
2022-08-17T02:40:54.228Z,82.30
2022-08-17T02:41:54.189Z,82.50
2022-08-17T02:42:54.188Z,82.50
2022-08-17T02:43:54.168Z,82.40
2022-08-17T02:44:54.889Z,81.99
2022-08-17T02:45:54.147Z,82.40
2022-08-17T02:46:54.149Z,81.99
2022-08-17T02:47:54.134Z,81.90
2022-08-17T02:48:54.137Z,82.20
2022-08-17T02:49:55.531Z,82.10
2022-08-17T02:50:54.827Z,82.20
2022-08-17T02:51:54.154Z,82.30
2022-08-17T02:53:01.341Z,82.40
2022-08-17T02:54:35.641Z,82.60
2022-08-17T02:54:55.056Z,82.60
2022-08-17T02:55:54.039Z,82.70
2022-08-17T02:56:54.186Z,82.60
2022-08-17T02:57:54.010Z,82.70
2022-08-17T02:58:54.019Z,82.60
2022-08-17T02:59:53.988Z,82.60
2022-08-17T03:00:53.991Z,82.40
2022-08-17T03:01:54.063Z,82.50
2022-08-17T03:02:53.978Z,82.50
2022-08-17T03:03:53.949Z,82.30
2022-08-17T03:04:53.956Z,82.50
2022-08-17T03:05:53.938Z,82.60
2022-08-17T03:06:54.008Z,82.60
2022-08-17T03:07:53.909Z,82.60
2022-08-17T03:08:54.269Z,82.60
2022-08-17T03:09:53.878Z,82.30
2022-08-17T03:10:53.887Z,82.30
2022-08-17T03:11:55.985Z,82.40
2022-08-17T03:12:53.897Z,82.50
2022-08-17T03:13:54.189Z,82.40
2022-08-17T03:14:53.851Z,82.40
2022-08-17T03:15:53.828Z,82.50
2022-08-17T03:16:53.819Z,82.50
2022-08-17T03:17:53.819Z,82.50
2022-08-17T03:18:53.819Z,82.60
2022-08-17T03:19:53.790Z,82.50
2022-08-17T03:20:53.788Z,82.50
2022-08-17T03:21:55.034Z,82.60
2022-08-17T03:22:53.891Z,82.60
2022-08-17T03:23:54.811Z,82.70
2022-08-17T03:24:53.739Z,82.40
2022-08-17T03:25:54.088Z,82.20
2022-08-17T03:26:53.710Z,81.39
2022-08-17T03:27:53.694Z,81.59
2022-08-17T03:28:53.690Z,81.99
2022-08-17T03:29:53.669Z,81.99
2022-08-17T03:30:53.667Z,81.99
2022-08-17T03:31:53.639Z,81.69
2022-08-17T03:32:53.709Z,81.49
2022-08-17T03:33:53.620Z,81.69
2022-08-17T03:34:53.741Z,81.69
2022-08-17T03:35:53.618Z,82.10
2022-08-17T03:36:53.608Z,81.79
2022-08-17T03:38:00.951Z,81.69
2022-08-17T03:38:54.578Z,82.20
2022-08-17T03:39:53.633Z,82.20
2022-08-17T03:40:57.676Z,82.30
2022-08-17T03:41:54.529Z,82.30
2022-08-17T03:42:53.540Z,82.50
2022-08-17T03:43:53.500Z,82.50
2022-08-17T03:44:53.511Z,82.60
2022-08-17T03:45:54.271Z,82.70
2022-08-17T03:46:53.491Z,82.70
2022-08-17T03:47:53.461Z,82.81
2022-08-17T03:48:53.473Z,82.90
2022-08-17T03:49:53.440Z,82.90
2022-08-17T03:50:53.452Z,83.11
2022-08-17T03:51:54.210Z,83.11
2022-08-17T03:52:53.511Z,83.21
2022-08-17T03:53:53.744Z,83.11
2022-08-17T03:54:53.394Z,83.11
2022-08-17T03:55:53.370Z,81.90
2022-08-17T03:56:53.381Z,82.81
2022-08-17T03:57:53.351Z,82.81
2022-08-17T03:58:53.352Z,81.90
2022-08-17T03:59:53.331Z,82.20
2022-08-17T04:00:53.321Z,82.30
2022-08-17T04:01:53.418Z,82.40
2022-08-17T04:02:53.321Z,82.30
2022-08-17T04:03:53.355Z,82.30
2022-08-17T04:04:53.294Z,81.90
2022-08-17T04:05:53.260Z,81.49
2022-08-17T04:06:53.260Z,81.90
2022-08-17T04:07:53.281Z,81.59
2022-08-17T04:08:53.244Z,80.27
2022-08-17T04:09:53.225Z,81.65
2022-08-17T04:10:53.223Z,81.96
2022-08-17T04:11:53.210Z,81.96
2022-08-17T04:12:53.211Z,81.85
2022-08-17T04:13:53.180Z,81.76
2022-08-17T04:14:55.069Z,81.85
2022-08-17T04:15:53.152Z,81.85
2022-08-17T04:16:53.152Z,82.06
2022-08-17T04:17:53.132Z,81.76
2022-08-17T04:18:53.140Z,81.76
2022-08-17T04:19:53.177Z,81.76
2022-08-17T04:20:53.119Z,81.65
2022-08-17T04:21:53.102Z,81.35
2022-08-17T04:22:53.092Z,81.76
2022-08-17T04:23:53.072Z,81.96
2022-08-17T04:24:53.165Z,81.85
2022-08-17T04:25:53.063Z,81.96
2022-08-17T04:26:54.682Z,81.76
2022-08-17T04:27:53.036Z,81.55
2022-08-17T04:28:53.024Z,81.76
2022-08-17T04:29:54.724Z,81.85
2022-08-17T04:30:53.011Z,81.65
2022-08-17T04:31:52.972Z,81.65
2022-08-17T04:33:05.011Z,81.76
2022-08-17T04:33:53.952Z,81.71
2022-08-17T04:34:52.961Z,81.41
2022-08-17T04:35:52.958Z,81.62
2022-08-17T04:36:52.940Z,81.21
2022-08-17T04:37:52.913Z,81.11
2022-08-17T04:38:52.926Z,81.11
2022-08-17T04:39:52.931Z,81.11
2022-08-17T04:40:52.940Z,80.80
2022-08-17T04:41:53.644Z,80.80
2022-08-17T04:42:52.873Z,80.71
2022-08-17T04:43:53.847Z,80.91
2022-08-17T04:44:52.842Z,80.91
2022-08-17T04:45:56.101Z,81.01
2022-08-17T04:46:52.854Z,80.30
2022-08-17T04:47:52.814Z,79.19
2022-08-17T04:48:52.805Z,80.30
2022-08-17T04:49:52.772Z,80.60
2022-08-17T04:50:52.792Z,80.71
2022-08-17T04:51:55.719Z,80.91
2022-08-17T04:52:52.763Z,80.80
2022-08-17T04:53:54.677Z,80.30
2022-08-17T04:54:52.742Z,80.50
2022-08-17T04:55:52.708Z,80.50
2022-08-17T04:56:52.713Z,80.97
2022-08-17T04:57:52.692Z,81.07
2022-08-17T04:58:52.691Z,81.07
2022-08-17T04:59:52.663Z,80.97
2022-08-17T05:00:52.754Z,80.87
2022-08-17T05:01:52.643Z,80.97
2022-08-17T05:02:52.948Z,80.77
2022-08-17T05:03:52.625Z,80.91
2022-08-17T05:04:52.632Z,80.87
2022-08-17T05:05:52.604Z,80.97
2022-08-17T05:06:52.615Z,81.07
2022-08-17T05:07:52.587Z,80.57
2022-08-17T05:08:52.596Z,80.57
2022-08-17T05:09:52.555Z,80.66
2022-08-17T05:10:52.564Z,80.77
2022-08-17T05:11:52.559Z,80.46
2022-08-17T05:12:52.534Z,80.26
2022-08-17T05:13:52.554Z,80.26
2022-08-17T05:14:52.543Z,80.06
2022-08-17T05:15:52.514Z,79.15
2022-08-17T05:16:52.494Z,79.72
2022-08-17T05:17:52.473Z,80.02
2022-08-17T05:18:52.479Z,79.92
2022-08-17T05:19:53.184Z,79.62
2022-08-17T05:20:52.794Z,79.52
2022-08-17T05:21:52.438Z,79.01
2022-08-17T05:22:52.621Z,78.97
2022-08-17T05:23:56.320Z,79.08
2022-08-17T05:24:53.979Z,79.38
2022-08-17T05:25:52.384Z,78.57
2022-08-17T05:26:52.393Z,78.57
2022-08-17T05:27:52.354Z,78.67
2022-08-17T05:28:52.367Z,78.13
2022-08-17T05:29:52.355Z,77.83
2022-08-17T05:30:52.353Z,78.03
2022-08-17T05:31:52.325Z,78.03
2022-08-17T05:32:52.495Z,75.07
2022-08-17T05:33:52.315Z,76.18
2022-08-17T05:34:52.295Z,77.39
2022-08-17T05:35:52.276Z,77.19
2022-08-17T05:36:52.275Z,76.24
2022-08-17T05:37:52.244Z,76.34
2022-08-17T05:38:52.255Z,76.44
2022-08-17T05:39:52.269Z,76.44
2022-08-17T05:40:52.235Z,76.20
2022-08-17T05:41:52.425Z,76.40
2022-08-17T05:42:52.471Z,76.20
2022-08-17T05:43:56.255Z,75.50
2022-08-17T05:44:52.185Z,72.24
2022-08-17T05:45:56.207Z,75.06
2022-08-17T05:46:52.194Z,74.76
2022-08-17T05:47:52.263Z,74.22
2022-08-17T05:48:52.143Z,73.52
2022-08-17T05:49:53.831Z,73.82
2022-08-17T05:50:52.122Z,73.61
2022-08-17T05:51:52.135Z,73.58
2022-08-17T05:52:52.330Z,73.48
2022-08-17T05:53:52.076Z,73.78
2022-08-17T05:54:52.076Z,73.88
2022-08-17T05:55:52.106Z,71.43
2022-08-17T05:56:52.220Z,72.84
2022-08-17T05:57:53.556Z,73.14
2022-08-17T05:58:52.026Z,72.84
2022-08-17T05:59:52.013Z,72.74
2022-08-17T06:00:52.088Z,72.50
2022-08-17T06:01:51.979Z,72.30
2022-08-17T06:02:52.243Z,72.00
2022-08-17T06:03:52.266Z,72.07
2022-08-17T06:04:51.976Z,69.45
2022-08-17T06:05:52.697Z,69.45
2022-08-17T06:06:51.946Z,70.56
2022-08-17T06:07:51.915Z,70.83
2022-08-17T06:08:51.976Z,70.43
2022-08-17T06:09:51.887Z,68.82
2022-08-17T06:10:51.909Z,69.59
2022-08-17T06:11:53.667Z,69.79
2022-08-17T06:12:52.040Z,69.49
2022-08-17T06:13:51.847Z,65.04
2022-08-17T06:14:51.847Z,67.25
2022-08-17T06:15:51.837Z,65.71
2022-08-17T06:16:51.933Z,62.20
2022-08-17T06:17:51.808Z,67.22
2022-08-17T06:18:51.807Z,65.68
2022-08-17T06:19:51.778Z,65.98
2022-08-17T06:20:51.809Z,67.29
2022-08-17T06:21:51.757Z,64.25
2022-08-17T06:22:51.977Z,61.74
2022-08-17T06:23:51.738Z,61.94
2022-08-17T06:24:51.746Z,57.40
2022-08-17T06:25:51.711Z,57.10
2022-08-17T06:26:51.818Z,57.90
2022-08-17T06:27:53.620Z,57.90
2022-08-17T06:28:51.689Z,64.69
2022-08-17T06:29:51.671Z,65.09
2022-08-17T06:31:00.774Z,65.59
2022-08-17T06:31:52.648Z,65.59
2022-08-17T06:32:51.925Z,65.89
2022-08-17T06:33:51.619Z,66.28
2022-08-17T06:34:51.628Z,65.59
2022-08-17T06:35:51.648Z,59.78
2022-08-17T06:36:52.345Z,57.57
2022-08-17T06:37:51.617Z,58.28
2022-08-17T06:38:51.580Z,65.39
2022-08-17T06:39:51.637Z,61.38
2022-08-17T06:40:51.553Z,57.98
2022-08-17T06:41:51.550Z,64.59
2022-08-17T06:42:55.018Z,61.25
2022-08-17T06:43:52.531Z,62.15
2022-08-17T06:44:51.734Z,57.55
2022-08-17T06:45:51.508Z,56.95
2022-08-17T06:46:51.479Z,61.15
2022-08-17T06:47:52.051Z,62.15
2022-08-17T06:48:51.747Z,58.65
2022-08-17T06:49:55.268Z,58.62
2022-08-17T06:50:51.440Z,64.03
2022-08-17T06:51:51.438Z,57.92
2022-08-17T06:52:52.332Z,55.22
2022-08-17T06:53:51.580Z,53.32
2022-08-17T06:54:52.142Z,53.39
2022-08-17T06:55:52.304Z,53.49
2022-08-17T06:56:53.808Z,56.29
2022-08-17T06:57:51.379Z,63.69
2022-08-17T06:58:51.344Z,54.19
2022-08-17T06:59:55.903Z,52.99
2022-08-17T07:00:56.654Z,56.37
2022-08-17T07:01:52.321Z,56.27
2022-08-17T07:02:53.263Z,59.56
2022-08-17T07:03:52.042Z,58.26
2022-08-17T07:04:51.289Z,54.27
2022-08-17T07:05:51.334Z,54.34
2022-08-17T07:06:51.309Z,56.54
2022-08-17T07:07:51.372Z,56.44
2022-08-17T07:08:51.250Z,55.74
2022-08-17T07:09:51.983Z,53.14
2022-08-17T07:10:51.223Z,52.82
2022-08-17T07:11:51.223Z,53.72
2022-08-17T07:12:51.390Z,53.12
2022-08-17T07:13:51.780Z,54.02
2022-08-17T07:14:51.171Z,53.39
2022-08-17T07:15:56.440Z,54.09
2022-08-17T07:16:52.141Z,54.49
2022-08-17T07:17:51.980Z,57.78
2022-08-17T07:18:51.131Z,53.99
2022-08-17T07:19:51.132Z,57.46
2022-08-17T07:20:51.117Z,57.06
2022-08-17T07:21:51.132Z,57.86
2022-08-17T07:22:57.722Z,55.16
2022-08-17T07:23:52.084Z,53.47
2022-08-17T07:24:51.070Z,55.63
2022-08-17T07:25:51.983Z,56.73
2022-08-17T07:26:51.043Z,53.54
2022-08-17T07:27:51.260Z,52.94
2022-08-17T07:28:51.013Z,52.34
2022-08-17T07:29:51.035Z,56.40
2022-08-17T07:30:51.003Z,56.30
2022-08-17T07:31:51.003Z,56.51
2022-08-17T07:32:51.324Z,53.11
2022-08-17T07:33:50.991Z,52.99
2022-08-17T07:34:50.953Z,54.79
2022-08-17T07:35:50.955Z,52.99
2022-08-17T07:36:51.701Z,54.98
2022-08-17T07:37:51.199Z,54.19
2022-08-17T07:38:51.074Z,52.97
2022-08-17T07:39:59.705Z,54.26
2022-08-17T07:40:51.894Z,53.56
2022-08-17T07:41:53.168Z,54.36
2022-08-17T07:42:52.327Z,54.33
2022-08-17T07:43:50.884Z,53.74
2022-08-17T07:44:50.837Z,53.64
2022-08-17T07:45:50.917Z,53.81
2022-08-17T07:46:50.824Z,53.61
2022-08-17T07:47:51.013Z,53.41
2022-08-17T07:48:50.810Z,53.58
2022-08-17T07:49:50.795Z,51.60
2022-08-17T07:50:50.899Z,52.96
2022-08-17T07:51:50.785Z,52.67
2022-08-17T07:52:52.509Z,51.17
2022-08-17T07:53:50.797Z,51.28
2022-08-17T07:54:50.739Z,51.25
2022-08-17T07:55:50.737Z,51.75
2022-08-17T07:56:50.719Z,51.15
2022-08-17T07:57:50.857Z,50.95
2022-08-17T07:58:51.637Z,50.53
2022-08-17T07:59:50.696Z,51.23
2022-08-17T08:00:50.668Z,50.33
2022-08-17T08:01:51.774Z,50.13
2022-08-17T08:02:51.639Z,50.43
2022-08-17T08:03:52.461Z,50.53
2022-08-17T08:05:00.464Z,50.73
2022-08-17T08:05:51.649Z,49.51
2022-08-17T08:06:50.630Z,49.21
2022-08-17T08:07:50.818Z,50.01
2022-08-17T08:08:50.588Z,50.23
2022-08-17T08:09:50.579Z,50.43
2022-08-17T08:10:50.559Z,50.53
2022-08-17T08:11:50.557Z,49.84
2022-08-17T08:12:53.722Z,50.13
2022-08-17T08:13:50.537Z,50.13
2022-08-17T08:14:50.527Z,50.03
2022-08-17T08:15:53.605Z,49.74
2022-08-17T08:16:50.509Z,50.51
2022-08-17T08:17:50.654Z,49.44
2022-08-17T08:18:55.591Z,50.33
2022-08-17T08:19:52.429Z,50.63
2022-08-17T08:20:53.886Z,50.60
2022-08-17T08:21:50.458Z,49.71
2022-08-17T08:22:50.420Z,49.51
2022-08-17T08:23:50.440Z,49.44
2022-08-17T08:24:50.400Z,49.74
2022-08-17T08:25:53.594Z,49.51
2022-08-17T08:26:50.409Z,50.38
2022-08-17T08:27:50.949Z,49.49
2022-08-17T08:28:51.089Z,49.37
2022-08-17T08:29:50.361Z,48.08
2022-08-17T08:30:50.340Z,48.15
2022-08-17T08:31:50.340Z,47.46
2022-08-17T08:32:50.649Z,47.75
2022-08-17T08:33:50.319Z,48.53
2022-08-17T08:35:01.386Z,48.13
2022-08-17T08:35:51.350Z,47.83
2022-08-17T08:37:13.105Z,47.53
2022-08-17T08:37:51.354Z,47.71
2022-08-17T08:38:50.980Z,47.61
2022-08-17T08:39:51.074Z,47.29
2022-08-17T08:40:50.231Z,47.09
2022-08-17T08:41:50.317Z,46.30
2022-08-17T08:42:50.373Z,46.60
2022-08-17T08:43:53.079Z,46.80
2022-08-17T08:44:59.739Z,46.89
2022-08-17T08:45:51.214Z,46.78
2022-08-17T08:46:50.182Z,48.06
2022-08-17T08:47:50.361Z,48.06
2022-08-17T08:48:56.260Z,46.78
2022-08-17T08:50:06.424Z,47.27
2022-08-17T08:50:51.137Z,48.06
2022-08-17T08:51:51.591Z,48.75
2022-08-17T08:52:50.102Z,46.97
2022-08-17T08:53:50.101Z,46.67
2022-08-17T08:54:50.092Z,46.88
2022-08-17T08:55:50.093Z,46.18
2022-08-17T08:57:21.413Z,45.59
2022-08-17T08:57:51.238Z,46.40
2022-08-17T08:58:50.270Z,46.30
2022-08-17T08:59:54.138Z,46.11
2022-08-17T09:00:51.228Z,46.01
2022-08-17T09:01:50.323Z,46.30
2022-08-17T09:02:49.987Z,46.80
2022-08-17T09:03:53.184Z,46.40
2022-08-17T09:05:13.444Z,46.97
2022-08-17T09:05:50.972Z,46.18
2022-08-17T09:06:49.952Z,46.18
2022-08-17T09:07:50.143Z,46.78
2022-08-17T09:08:49.924Z,45.98
2022-08-17T09:09:50.145Z,46.08
2022-08-17T09:10:50.255Z,45.79
2022-08-17T09:12:01.766Z,45.09
2022-08-17T09:12:50.885Z,44.80
2022-08-17T09:13:54.179Z,44.50
2022-08-17T09:14:49.856Z,44.48
2022-08-17T09:15:49.887Z,44.78
2022-08-17T09:16:49.876Z,44.97
2022-08-17T09:18:03.534Z,44.90
2022-08-17T09:19:02.527Z,45.09
2022-08-17T09:19:51.536Z,45.19
2022-08-17T09:20:50.418Z,45.68
2022-08-17T09:21:49.815Z,45.89
2022-08-17T09:22:49.771Z,45.79
2022-08-17T09:23:49.787Z,45.81
2022-08-17T09:24:49.747Z,45.90
2022-08-17T09:25:49.756Z,45.53
2022-08-17T09:26:50.162Z,46.45
2022-08-17T09:27:49.974Z,46.84
2022-08-17T09:28:49.707Z,46.94
2022-08-17T09:29:49.726Z,46.84
2022-08-17T09:30:49.678Z,47.06
2022-08-17T09:31:49.732Z,46.86
2022-08-17T09:32:49.889Z,47.06
2022-08-17T09:33:49.668Z,46.69
2022-08-17T09:34:49.642Z,46.89
2022-08-17T09:35:49.657Z,47.41
2022-08-17T09:36:49.628Z,47.80
2022-08-17T09:37:49.815Z,48.13
2022-08-17T09:38:49.597Z,48.72
2022-08-17T09:39:49.647Z,49.21
2022-08-17T09:40:49.639Z,49.21
2022-08-17T09:41:49.626Z,49.81
2022-08-17T09:42:49.559Z,49.93
2022-08-17T09:43:49.548Z,50.53
2022-08-17T09:44:49.520Z,50.33
2022-08-17T09:45:49.528Z,50.13
2022-08-17T09:46:49.502Z,49.44
2022-08-17T09:47:49.582Z,49.96
2022-08-17T09:48:49.498Z,49.54
2022-08-17T09:49:49.490Z,49.63
2022-08-17T09:51:05.223Z,50.05
2022-08-17T09:51:50.477Z,50.05
2022-08-17T09:52:49.442Z,50.45
2022-08-17T09:53:49.839Z,50.75
2022-08-17T09:54:49.421Z,50.95
2022-08-17T09:55:49.432Z,50.35
2022-08-17T09:57:00.870Z,49.76
2022-08-17T09:57:50.583Z,50.23
2022-08-17T09:58:49.371Z,49.93
2022-08-17T09:59:49.391Z,49.41
2022-08-17T10:00:49.425Z,49.02
2022-08-17T10:01:49.361Z,48.90
2022-08-17T10:02:49.340Z,49.19
2022-08-17T10:03:49.333Z,49.46
2022-08-17T10:04:49.310Z,49.05
2022-08-17T10:05:49.321Z,47.14
2022-08-17T10:06:50.311Z,46.52
2022-08-17T10:07:49.352Z,46.23
2022-08-17T10:08:49.267Z,45.90
2022-08-17T10:09:49.293Z,45.81
2022-08-17T10:10:56.215Z,45.68
2022-08-17T10:11:50.583Z,45.79
2022-08-17T10:12:49.230Z,46.06
2022-08-17T10:13:53.438Z,45.47
2022-08-17T10:14:53.369Z,45.35
2022-08-17T10:15:50.209Z,45.45
2022-08-17T10:16:49.177Z,44.34
2022-08-17T10:17:49.327Z,44.14
2022-08-17T10:18:49.163Z,44.24
2022-08-17T10:19:49.166Z,44.24
2022-08-17T10:20:49.145Z,44.04
2022-08-17T10:21:49.948Z,44.04
2022-08-17T10:22:54.856Z,44.34
2022-08-17T10:23:50.115Z,44.24
2022-08-17T10:25:01.869Z,44.24
2022-08-17T10:25:55.059Z,44.26
2022-08-17T10:26:57.259Z,44.46
2022-08-17T10:27:50.225Z,44.87
2022-08-17T10:28:49.053Z,45.39
2022-08-17T10:29:49.952Z,45.76
2022-08-17T10:30:49.033Z,45.47
2022-08-17T10:31:49.034Z,45.67
2022-08-17T10:32:49.006Z,46.26
2022-08-17T10:33:49.004Z,46.66
2022-08-17T10:34:49.006Z,45.64
2022-08-17T10:35:49.005Z,45.45
2022-08-17T10:36:48.954Z,45.54
2022-08-17T10:37:49.029Z,45.45
2022-08-17T10:38:48.935Z,44.73
2022-08-17T10:39:52.356Z,43.74
2022-08-17T10:40:48.926Z,44.14
2022-08-17T10:41:48.924Z,43.94
2022-08-17T10:42:48.896Z,44.43
2022-08-17T10:44:37.414Z,44.22
2022-08-17T10:44:49.865Z,43.35
2022-08-17T10:45:48.885Z,43.74
2022-08-17T10:46:49.878Z,43.25
2022-08-17T10:47:55.548Z,43.74
2022-08-17T10:48:49.826Z,43.57
2022-08-17T10:49:48.846Z,44.58
2022-08-17T10:50:48.901Z,44.97
2022-08-17T10:51:48.820Z,44.87
2022-08-17T10:52:48.796Z,44.87
2022-08-17T10:53:48.780Z,45.05
2022-08-17T10:54:48.789Z,44.78
2022-08-17T10:55:48.747Z,44.97
2022-08-17T10:56:48.757Z,44.87
2022-08-17T10:57:48.817Z,44.97
2022-08-17T10:58:48.747Z,44.78
2022-08-17T10:59:48.706Z,45.29
2022-08-17T11:00:48.747Z,45.79
2022-08-17T11:01:48.688Z,45.37
2022-08-17T11:02:48.787Z,45.47
2022-08-17T11:03:48.669Z,45.17
2022-08-17T11:04:48.668Z,45.17
2022-08-17T11:05:48.649Z,45.17
2022-08-17T11:06:48.648Z,45.17
2022-08-17T11:07:49.038Z,45.17
2022-08-17T11:08:48.629Z,45.25
2022-08-17T11:09:48.623Z,44.75
2022-08-17T11:10:51.959Z,44.56
2022-08-17T11:11:48.632Z,44.04
2022-08-17T11:12:48.610Z,44.24
2022-08-17T11:13:48.568Z,43.94
2022-08-17T11:14:48.569Z,43.52
2022-08-17T11:15:48.559Z,43.43
2022-08-17T11:16:48.567Z,43.52
2022-08-17T11:17:48.569Z,43.33
2022-08-17T11:18:48.540Z,43.65
2022-08-17T11:19:48.551Z,44.04
2022-08-17T11:20:48.492Z,44.06
2022-08-17T11:21:49.291Z,44.46
2022-08-17T11:22:48.506Z,44.36
2022-08-17T11:23:48.505Z,44.46
2022-08-17T11:24:48.464Z,44.36
2022-08-17T11:25:48.421Z,44.46
2022-08-17T11:26:48.431Z,44.36
2022-08-17T11:27:48.408Z,44.26
2022-08-17T11:28:48.421Z,44.46
2022-08-17T11:29:52.935Z,44.58
2022-08-17T11:30:49.390Z,44.48
2022-08-17T11:31:48.361Z,44.58
2022-08-17T11:32:51.991Z,44.58
2022-08-17T11:33:49.345Z,44.58
2022-08-17T11:34:48.371Z,44.48
2022-08-17T11:35:48.321Z,44.38
2022-08-17T11:36:48.323Z,44.38
2022-08-17T11:37:48.301Z,44.38
2022-08-17T11:38:48.324Z,44.56
2022-08-17T11:39:48.541Z,44.68
2022-08-17T11:40:48.702Z,45.07
2022-08-17T11:41:48.254Z,44.87
2022-08-17T11:42:48.410Z,44.97
2022-08-17T11:43:48.254Z,45.79
2022-08-17T11:44:48.246Z,45.59
2022-08-17T11:45:48.234Z,45.29
2022-08-17T11:46:51.784Z,45.29
2022-08-17T11:48:08.975Z,45.68
2022-08-17T11:48:49.192Z,45.49
2022-08-17T11:49:48.174Z,45.79
2022-08-17T11:50:48.173Z,45.17
2022-08-17T11:51:48.154Z,44.97
2022-08-17T11:52:48.153Z,44.87
2022-08-17T11:53:48.145Z,44.97
2022-08-17T11:54:48.289Z,45.07
2022-08-17T11:55:48.114Z,45.17
2022-08-17T11:56:48.113Z,45.25
2022-08-17T11:57:48.084Z,45.15
2022-08-17T11:58:48.084Z,45.15
2022-08-17T11:59:48.073Z,45.03
2022-08-17T12:00:48.085Z,44.43
2022-08-17T12:01:48.047Z,43.82
2022-08-17T12:02:48.739Z,43.82
2022-08-17T12:03:54.141Z,43.74
2022-08-17T12:04:49.853Z,43.84
2022-08-17T12:05:48.908Z,44.14
2022-08-17T12:06:48.428Z,44.14
2022-08-17T12:07:48.008Z,43.55
2022-08-17T12:08:47.986Z,43.94
2022-08-17T12:09:48.956Z,43.74
2022-08-17T12:10:47.958Z,43.74
2022-08-17T12:12:11.380Z,43.74
2022-08-17T12:12:48.947Z,43.65
2022-08-17T12:13:47.918Z,43.43
2022-08-17T12:15:48.891Z,43.01
2022-08-17T12:16:48.647Z,42.60
2022-08-17T12:17:47.878Z,42.47
2022-08-17T12:18:47.874Z,41.47
2022-08-17T12:19:47.846Z,41.35
2022-08-17T12:20:47.860Z,41.16
2022-08-17T12:21:47.827Z,40.94
2022-08-17T12:22:47.855Z,40.72
2022-08-17T12:23:47.813Z,39.52
2022-08-17T12:24:48.619Z,39.62
2022-08-17T12:25:47.778Z,39.32
2022-08-17T12:26:47.796Z,38.64
2022-08-17T12:28:05.227Z,39.25
2022-08-17T12:28:48.767Z,39.34
2022-08-17T12:29:47.767Z,39.95
2022-08-17T12:30:47.748Z,40.25
2022-08-17T12:31:47.718Z,40.45
2022-08-17T12:32:47.737Z,38.99
2022-08-17T12:33:47.731Z,40.39
2022-08-17T12:34:47.699Z,41.17
2022-08-17T12:35:47.690Z,40.88
2022-08-17T12:36:47.679Z,39.50
2022-08-17T12:37:47.652Z,39.78
2022-08-17T12:38:48.179Z,40.58
2022-08-17T12:39:47.701Z,40.37
2022-08-17T12:40:47.650Z,39.47
2022-08-17T12:41:47.620Z,37.69
2022-08-17T12:42:47.620Z,37.30
2022-08-17T12:43:47.935Z,38.58
2022-08-17T12:44:50.010Z,38.09
2022-08-17T12:45:47.571Z,38.38
2022-08-17T12:46:47.573Z,38.28
2022-08-17T12:47:47.553Z,38.87
2022-08-17T12:48:58.799Z,39.86
2022-08-17T12:49:48.541Z,39.54
2022-08-17T12:50:47.532Z,37.38
2022-08-17T12:51:47.511Z,39.76
2022-08-17T12:52:47.514Z,37.99
2022-08-17T12:53:47.480Z,38.10